Time;durP1;ratioP1;P1;durP2;ratioP2;P2;SDS_P1;SDS_P2;PMS_P1;PMS_P2;Temp;Humidity;BMP_temperature;BMP_pressure;BME280_temperature;BME280_humidity;BME280_pressure;Samples;Min_cycle;Max_cycle;Signal;HPM_P1;HPM_P2
2021/01/31 00:01:58;;;;;;;41.60;16.10;;;;;;;;;;4404683;32;20126;-81
2021/01/31 00:04:34;;;;;;;43.60;17.00;;;;;;;;;;4390976;32;20180;-81
2021/01/31 00:07:10;;;;;;;45.03;18.47;;;;;;;;;;4391234;32;20150;-81
2021/01/31 00:09:36;;;;;;;44.50;16.37;;;;;;;;;;4393716;32;20161;-81
2021/01/31 00:12:03;;;;;;;43.87;17.00;;;;;;;;;;4393638;32;20288;-81
2021/01/31 00:14:28;;;;;;;50.03;17.67;;;;;;;;;;4393619;32;20162;-81
2021/01/31 00:16:53;;;;;;;49.70;17.97;;;;;;;;;;4393329;32;20165;-81
2021/01/31 00:19:19;;;;;;;46.50;17.87;;;;;;;;;;4393719;32;20176;-81
2021/01/31 00:21:48;;;;;;;49.40;17.90;;;;;;;;;;4393550;32;20196;-81
2021/01/31 00:24:34;;;;;;;50.57;17.63;;;;;;;;;;4393505;32;20177;-81
2021/01/31 00:30:34;;;;;;;48.80;17.70;;;;;;;;;;4320433;33;20524;-81
2021/01/31 00:33:03;;;;;;;46.63;17.77;;;;;;;;;;4367918;32;20166;-81
2021/01/31 00:35:29;;;;;;;49.03;19.03;;;;;;;;;;4362221;32;20173;-81
2021/01/31 00:37:55;;;;;;;51.50;17.80;;;;;;;;;;4374689;32;20151;-81
2021/01/31 00:40:20;;;;;;;48.33;17.00;;;;;;;;;;4361691;32;20170;-81
2021/01/31 00:42:46;;;;;;;55.23;17.97;;;;;;;;;;4362656;32;20184;-81
2021/01/31 00:45:14;;;;;;;52.90;19.00;;;;;;;;;;4374789;32;20173;-81
2021/01/31 00:47:40;;;;;;;53.03;16.77;;;;;;;;;;4362551;32;20224;-81
2021/01/31 00:50:06;;;;;;;48.20;18.10;;;;;;;;;;4374669;32;20162;-81
2021/01/31 00:52:34;;;;;;;48.17;18.17;;;;;;;;;;4374805;32;20221;-81
2021/01/31 00:55:03;;;;;;;46.17;18.23;;;;;;;;;;4362139;32;20631;-81
2021/01/31 00:57:28;;;;;;;55.63;18.70;;;;;;;;;;4370614;32;20192;-81
2021/01/31 00:59:55;;;;;;;50.37;19.20;;;;;;;;;;4393430;32;20151;-81
2021/01/31 01:02:21;;;;;;;47.67;17.83;;;;;;;;;;4406622;32;20130;-81
2021/01/31 01:04:47;;;;;;;51.13;19.17;;;;;;;;;;4392907;32;20664;-80
2021/01/31 01:07:15;;;;;;;50.97;17.87;;;;;;;;;;4392843;32;20530;-80
2021/01/31 01:09:44;;;;;;;51.27;18.33;;;;;;;;;;4392775;32;20579;-80
2021/01/31 01:12:10;;;;;;;51.77;18.23;;;;;;;;;;4381061;32;20583;-80
2021/01/31 01:14:35;;;;;;;50.53;18.50;;;;;;;;;;4392865;32;20502;-80
2021/01/31 01:17:02;;;;;;;51.37;17.97;;;;;;;;;;4393199;32;20172;-79
2021/01/31 01:22:44;;;;;;;49.77;17.90;;;;;;;;;;4330494;33;20166;-80
2021/01/31 01:25:10;;;;;;;53.60;18.33;;;;;;;;;;4317538;33;20159;-80
2021/01/31 01:27:36;;;;;;;49.23;17.77;;;;;;;;;;4329994;33;20473;-80
2021/01/31 01:30:03;;;;;;;48.80;18.37;;;;;;;;;;4329111;33;20238;-80
2021/01/31 01:32:29;;;;;;;52.50;18.07;;;;;;;;;;4333870;32;20160;-80
2021/01/31 01:34:54;;;;;;;51.27;18.20;;;;;;;;;;4378080;32;20138;-79
2021/01/31 01:37:20;;;;;;;54.50;18.50;;;;;;;;;;4377368;32;20546;-80
2021/01/31 01:39:52;;;;;;;52.70;18.03;;;;;;;;;;4378140;32;20163;-80
2021/01/31 01:42:18;;;;;;;49.87;17.30;;;;;;;;;;4391854;32;20130;-80
2021/01/31 01:44:45;;;;;;;54.90;18.63;;;;;;;;;;4392292;32;20130;-80
2021/01/31 01:47:17;;;;;;;48.77;17.33;;;;;;;;;;4377179;32;20146;-80
2021/01/31 01:49:47;;;;;;;49.90;18.83;;;;;;;;;;4377797;32;20198;-80
2021/01/31 01:52:13;;;;;;;45.97;18.87;;;;;;;;;;4376929;32;20208;-80
2021/01/31 01:54:51;;;;;;;60.10;18.70;;;;;;;;;;4377550;32;20150;-80
2021/01/31 01:57:20;;;;;;;49.00;16.87;;;;;;;;;;4377453;32;20146;-80
2021/01/31 01:59:48;;;;;;;44.90;16.97;;;;;;;;;;4377148;32;20174;-79
2021/01/31 02:02:27;;;;;;;51.27;18.60;;;;;;;;;;4376912;32;20146;-80
2021/01/31 02:05:03;;;;;;;50.60;18.60;;;;;;;;;;4390697;32;20168;-80
2021/01/31 02:07:28;;;;;;;49.37;17.80;;;;;;;;;;4377242;32;20216;-80
2021/01/31 02:10:03;;;;;;;51.57;18.00;;;;;;;;;;4376589;32;20580;-80
2021/01/31 02:16:03;;;;;;;47.50;17.17;;;;;;;;;;4335543;32;20225;-80
2021/01/31 02:18:47;;;;;;;50.00;18.03;;;;;;;;;;4368522;32;20166;-80
2021/01/31 02:21:32;;;;;;;53.40;18.20;;;;;;;;;;4377743;32;20277;-80
2021/01/31 02:23:57;;;;;;;51.93;18.43;;;;;;;;;;4377107;32;20171;-80
2021/01/31 02:26:35;;;;;;;48.90;17.03;;;;;;;;;;4377218;32;20208;-80
2021/01/31 02:29:17;;;;;;;49.47;17.63;;;;;;;;;;4377434;32;20185;-80
2021/01/31 02:32:45;;;;;;;;;;;;;;;;;;;;;
2021/01/31 02:35:38;;;;;;;;;;;;;;;;;;;;;
2021/01/31 02:38:20;;;;;;;48.20;16.20;;;;;;;;;;4405195;32;20138;-80
2021/01/31 02:40:56;;;;;;;49.50;16.10;;;;;;;;;;4391656;32;20154;-80
2021/01/31 02:43:38;;;;;;;48.37;16.97;;;;;;;;;;4391110;32;20172;-80
2021/01/31 02:46:12;;;;;;;48.43;17.70;;;;;;;;;;4391705;32;20214;-80
2021/01/31 02:49:22;;;;;;;;;;;;;;;;;;;;;
2021/01/31 02:52:01;;;;;;;48.23;16.70;;;;;;;;;;4385159;32;20223;-80
2021/01/31 02:54:38;;;;;;;51.27;17.83;;;;;;;;;;4391246;32;20159;-80
2021/01/31 02:57:15;;;;;;;48.33;17.23;;;;;;;;;;4391794;32;20173;-80
2021/01/31 02:59:50;;;;;;;48.87;17.00;;;;;;;;;;4391933;32;20184;-80
2021/01/31 03:02:19;;;;;;;52.60;17.53;;;;;;;;;;4391790;32;20145;-79
2021/01/31 03:04:58;;;;;;;46.43;17.57;;;;;;;;;;4392306;32;20552;-80
2021/01/31 03:07:25;;;;;;;45.40;16.70;;;;;;;;;;4391260;32;20150;-80
2021/01/31 03:10:11;;;;;;;49.70;17.67;;;;;;;;;;4391246;32;20628;-80
2021/01/31 03:12:42;;;;;;;50.43;17.03;;;;;;;;;;4391525;32;20150;-80
2021/01/31 03:15:13;;;;;;;50.30;17.53;;;;;;;;;;4391368;32;20150;-80
2021/01/31 03:17:42;;;;;;;48.70;18.57;;;;;;;;;;4391657;32;20146;-80
2021/01/31 03:20:20;;;;;;;50.80;18.60;;;;;;;;;;4390803;32;20149;-80
2021/01/31 03:22:50;;;;;;;49.20;17.03;;;;;;;;;;4391268;32;20571;-80
2021/01/31 03:25:42;;;;;;;51.57;17.47;;;;;;;;;;4391581;32;20150;-80
2021/01/31 03:28:07;;;;;;;45.27;17.50;;;;;;;;;;4362717;32;20162;-80
2021/01/31 03:30:33;;;;;;;55.40;17.83;;;;;;;;;;4391131;32;20601;-80
2021/01/31 03:33:04;;;;;;;47.63;17.10;;;;;;;;;;4378530;32;20165;-80
2021/01/31 03:35:38;;;;;;;54.20;18.43;;;;;;;;;;4378741;32;20192;-79
2021/01/31 03:38:23;;;;;;;53.27;17.73;;;;;;;;;;4391081;32;20149;-80
2021/01/31 03:40:50;;;;;;;50.97;17.87;;;;;;;;;;4391913;32;20257;-80
2021/01/31 03:43:16;;;;;;;46.60;16.43;;;;;;;;;;4393150;32;20494;-80
2021/01/31 03:45:44;;;;;;;51.57;19.73;;;;;;;;;;4394258;32;20158;-79
2021/01/31 03:48:14;;;;;;;51.60;17.17;;;;;;;;;;4408197;32;20131;-80
2021/01/31 03:50:41;;;;;;;46.43;16.63;;;;;;;;;;4393727;32;20651;-80
2021/01/31 03:53:07;;;;;;;47.40;16.93;;;;;;;;;;4393904;32;20166;-80
2021/01/31 03:55:36;;;;;;;49.47;17.87;;;;;;;;;;4394399;32;20213;-80
2021/01/31 03:58:03;;;;;;;52.67;18.37;;;;;;;;;;4394106;32;20203;-80
2021/01/31 04:00:30;;;;;;;47.53;17.30;;;;;;;;;;4381443;32;20146;-80
2021/01/31 04:03:08;;;;;;;48.30;17.23;;;;;;;;;;4395174;32;20162;-80
2021/01/31 04:05:36;;;;;;;52.10;17.67;;;;;;;;;;4393211;32;20162;-80
2021/01/31 04:08:04;;;;;;;49.57;17.27;;;;;;;;;;4393699;32;20177;-80
2021/01/31 04:10:30;;;;;;;50.47;17.63;;;;;;;;;;4393968;32;20150;-80
2021/01/31 04:12:58;;;;;;;51.93;17.33;;;;;;;;;;4393660;32;20224;-80
2021/01/31 04:15:45;;;;;;;45.73;17.77;;;;;;;;;;4393557;32;20170;-80
2021/01/31 04:18:11;;;;;;;48.90;17.67;;;;;;;;;;4394282;32;20158;-80
2021/01/31 04:21:06;;;;;;;53.10;17.67;;;;;;;;;;4407282;32;20165;-80
2021/01/31 04:23:31;;;;;;;50.83;18.70;;;;;;;;;;4393953;32;20211;-80
2021/01/31 04:25:58;;;;;;;48.13;17.17;;;;;;;;;;4407575;32;20176;-80
2021/01/31 04:28:54;;;;;;;49.13;17.63;;;;;;;;;;4407320;32;20476;-80
2021/01/31 04:31:28;;;;;;;47.83;17.57;;;;;;;;;;4394157;32;20157;-80
2021/01/31 04:33:54;;;;;;;47.90;17.53;;;;;;;;;;4389919;32;20512;-80
2021/01/31 04:36:19;;;;;;;53.77;19.10;;;;;;;;;;4393798;32;20150;-80
2021/01/31 04:38:45;;;;;;;48.23;16.80;;;;;;;;;;4407896;32;20139;-80
2021/01/31 04:41:37;;;;;;;;;;;;;;;;;;;;;
2021/01/31 04:44:32;;;;;;;;;;;;;;;;;;;;;
2021/01/31 04:47:23;;;;;;;45.93;17.60;;;;;;;;;;4407647;32;20138;-80
2021/01/31 04:50:01;;;;;;;47.27;16.40;;;;;;;;;;4393283;32;20154;-80
2021/01/31 04:52:44;;;;;;;52.10;17.80;;;;;;;;;;4393394;32;20158;-80
2021/01/31 04:55:33;;;;;;;46.33;15.37;;;;;;;;;;4392227;32;20236;-79
2021/01/31 04:58:10;;;;;;;47.13;17.67;;;;;;;;;;4392925;32;20571;-80
2021/01/31 05:00:40;;;;;;;56.80;18.37;;;;;;;;;;4382225;32;20173;-79
2021/01/31 05:03:05;;;;;;;46.20;17.07;;;;;;;;;;4378355;32;20168;-80
2021/01/31 05:05:58;;;;;;;49.33;17.63;;;;;;;;;;4377688;32;20154;-80
2021/01/31 05:08:25;;;;;;;46.80;16.50;;;;;;;;;;4355382;32;20212;-80
2021/01/31 05:10:52;;;;;;;53.23;17.30;;;;;;;;;;4365692;32;20189;-80
2021/01/31 05:13:20;;;;;;;51.70;18.27;;;;;;;;;;4377937;32;20165;-80
2021/01/31 05:16:05;;;;;;;48.83;16.97;;;;;;;;;;4377587;32;20177;-79
2021/01/31 05:18:34;;;;;;;54.30;18.03;;;;;;;;;;4377317;32;20229;-79
2021/01/31 05:21:07;;;;;;;50.40;17.27;;;;;;;;;;4377593;32;20154;-79
2021/01/31 05:23:41;;;;;;;44.80;17.30;;;;;;;;;;4378238;32;20174;-79
2021/01/31 05:26:07;;;;;;;46.17;16.77;;;;;;;;;;4377554;32;20224;-79
2021/01/31 05:28:35;;;;;;;46.73;17.30;;;;;;;;;;4377811;32;20185;-79
2021/01/31 05:31:01;;;;;;;54.73;18.23;;;;;;;;;;4377767;32;20155;-79
2021/01/31 05:33:26;;;;;;;49.07;17.97;;;;;;;;;;4370111;32;20162;-79
2021/01/31 05:36:12;;;;;;;50.70;17.63;;;;;;;;;;4362408;32;20228;-79
2021/01/31 05:38:38;;;;;;;49.63;17.00;;;;;;;;;;4362736;32;20166;-79
2021/01/31 05:41:23;;;;;;;51.50;17.63;;;;;;;;;;4361919;32;20650;-79
2021/01/31 05:44:02;;;;;;;44.93;16.87;;;;;;;;;;4362408;32;20162;-80
2021/01/31 05:46:35;;;;;;;50.97;17.80;;;;;;;;;;4362491;32;20155;-80
2021/01/31 05:49:01;;;;;;;49.03;17.23;;;;;;;;;;4376389;32;20126;-80
2021/01/31 05:51:31;;;;;;;47.00;16.53;;;;;;;;;;4362189;32;20581;-79
2021/01/31 05:53:56;;;;;;;50.00;17.53;;;;;;;;;;4349856;32;20151;-79
2021/01/31 05:56:29;;;;;;;50.97;17.10;;;;;;;;;;4362290;32;20169;-80
2021/01/31 05:59:23;;;;;;;46.27;16.33;;;;;;;;;;4376921;32;20123;-79
2021/01/31 06:01:52;;;;;;;54.17;18.37;;;;;;;;;;4361736;32;20181;-79
2021/01/31 06:04:18;;;;;;;53.37;17.60;;;;;;;;;;4375614;32;20234;-79
2021/01/31 06:06:46;;;;;;;53.93;17.83;;;;;;;;;;4361788;32;20155;-79
2021/01/31 06:09:31;;;;;;;55.37;18.77;;;;;;;;;;4362337;32;20155;-79
2021/01/31 06:12:03;;;;;;;47.77;17.87;;;;;;;;;;4362084;32;20611;-79
2021/01/31 06:14:30;;;;;;;50.43;17.73;;;;;;;;;;4363035;32;20470;-79
2021/01/31 06:17:04;;;;;;;54.70;17.30;;;;;;;;;;4361655;32;20192;-79
2021/01/31 06:19:34;;;;;;;46.00;17.00;;;;;;;;;;4361832;32;20237;-79
2021/01/31 06:22:00;;;;;;;48.17;17.10;;;;;;;;;;4362031;32;20223;-79
2021/01/31 06:24:38;;;;;;;50.87;17.73;;;;;;;;;;4361660;32;20159;-79
2021/01/31 06:27:07;;;;;;;56.07;18.67;;;;;;;;;;4375417;32;20184;-78
2021/01/31 06:29:53;;;;;;;48.70;17.60;;;;;;;;;;4362146;32;20209;-78
2021/01/31 06:32:45;;;;;;;50.07;16.93;;;;;;;;;;4353938;32;20224;-78
2021/01/31 06:35:12;;;;;;;48.63;17.03;;;;;;;;;;4377110;32;20283;-78
2021/01/31 06:37:49;;;;;;;56.97;17.17;;;;;;;;;;4376461;32;20256;-78
2021/01/31 06:40:33;;;;;;;50.23;18.17;;;;;;;;;;4376970;32;20150;-78
2021/01/31 06:43:20;;;;;;;52.07;18.80;;;;;;;;;;4376531;32;20200;-78
2021/01/31 06:46:01;;;;;;;57.70;19.17;;;;;;;;;;4377527;32;20220;-78
2021/01/31 06:55:00;;;;;;;47.83;18.50;;;;;;;;;;4355779;33;20146;-78
2021/01/31 06:57:40;;;;;;;48.07;18.30;;;;;;;;;;4390562;32;20136;-78
2021/01/31 07:00:08;;;;;;;52.17;18.73;;;;;;;;;;4376946;32;20142;-78
2021/01/31 07:03:00;;;;;;;52.80;17.73;;;;;;;;;;4376105;32;20170;-78
2021/01/31 07:05:38;;;;;;;54.43;18.47;;;;;;;;;;4376296;32;20604;-77
2021/01/31 07:08:13;;;;;;;52.27;17.97;;;;;;;;;;4376387;32;20150;-77
2021/01/31 07:10:42;;;;;;;50.53;17.50;;;;;;;;;;4376152;32;20165;-77
2021/01/31 07:13:14;;;;;;;56.73;17.93;;;;;;;;;;4376387;32;20151;-77
2021/01/31 07:15:53;;;;;;;53.13;19.30;;;;;;;;;;4376511;32;20159;-77
2021/01/31 07:18:20;;;;;;;58.77;19.73;;;;;;;;;;4376422;32;20154;-78
2021/01/31 07:20:53;;;;;;;49.23;17.63;;;;;;;;;;4376012;32;20481;-78
2021/01/31 07:23:26;;;;;;;56.63;19.40;;;;;;;;;;4376455;32;20174;-78
2021/01/31 07:25:59;;;;;;;50.00;18.37;;;;;;;;;;4375975;32;20510;-77
2021/01/31 07:28:40;;;;;;;56.57;18.80;;;;;;;;;;4376043;32;20155;-78
2021/01/31 07:31:15;;;;;;;45.17;17.60;;;;;;;;;;4376154;32;20188;-77
2021/01/31 07:33:47;;;;;;;52.37;19.57;;;;;;;;;;4375973;32;20162;-78
2021/01/31 07:36:23;;;;;;;50.70;18.53;;;;;;;;;;4376011;32;20217;-78
2021/01/31 07:38:54;;;;;;;53.13;18.17;;;;;;;;;;4376219;32;20169;-78
2021/01/31 07:41:19;;;;;;;53.40;18.63;;;;;;;;;;4375862;32;20154;-79
2021/01/31 07:43:46;;;;;;;53.13;18.80;;;;;;;;;;4376245;32;20181;-78
2021/01/31 07:46:12;;;;;;;52.27;17.57;;;;;;;;;;4375814;32;20159;-79
2021/01/31 07:48:55;;;;;;;48.03;17.10;;;;;;;;;;4375759;32;20166;-78
2021/01/31 07:51:40;;;;;;;48.87;17.93;;;;;;;;;;4376400;32;20224;-78
2021/01/31 07:54:29;;;;;;;54.37;19.23;;;;;;;;;;4376118;32;20159;-78
2021/01/31 07:56:55;;;;;;;46.90;17.43;;;;;;;;;;4368218;32;20158;-78
2021/01/31 07:59:23;;;;;;;51.17;18.50;;;;;;;;;;4375844;32;20158;-78
2021/01/31 08:01:50;;;;;;;47.20;18.43;;;;;;;;;;4376031;32;20197;-78
2021/01/31 08:04:19;;;;;;;53.97;18.63;;;;;;;;;;4375796;32;20166;-78
2021/01/31 08:06:49;;;;;;;49.27;18.23;;;;;;;;;;4376679;32;20159;-78
2021/01/31 08:09:29;;;;;;;48.20;17.70;;;;;;;;;;4375709;32;20246;-77
2021/01/31 08:11:54;;;;;;;50.80;17.73;;;;;;;;;;4375698;32;20197;-77
2021/01/31 08:14:41;;;;;;;41.90;16.73;;;;;;;;;;4376040;32;20592;-77
2021/01/31 08:17:09;;;;;;;52.73;18.07;;;;;;;;;;4375909;32;20158;-77
2021/01/31 08:19:35;;;;;;;44.23;16.13;;;;;;;;;;4375760;32;20229;-76
2021/01/31 08:22:07;;;;;;;48.93;19.37;;;;;;;;;;4376174;32;20212;-77
2021/01/31 08:24:51;;;;;;;49.27;18.60;;;;;;;;;;4375499;32;20177;-77
2021/01/31 08:27:19;;;;;;;46.50;16.77;;;;;;;;;;4375746;32;20188;-77
2021/01/31 08:30:12;;;;;;;48.67;18.00;;;;;;;;;;4377679;32;20656;-77
2021/01/31 08:33:12;;;;;;;47.50;17.73;;;;;;;;;;4379165;32;20587;-77
2021/01/31 08:35:41;;;;;;;44.83;17.30;;;;;;;;;;4353215;32;20197;-77
2021/01/31 08:38:19;;;;;;;48.50;17.37;;;;;;;;;;4378061;32;20224;-77
2021/01/31 08:41:08;;;;;;;49.13;18.57;;;;;;;;;;4378396;32;20161;-77
2021/01/31 08:43:39;;;;;;;47.23;17.13;;;;;;;;;;4377960;32;20243;-78
2021/01/31 08:53:33;;;;;;;42.87;16.23;;;;;;;;;;4285674;33;20247;-78
2021/01/31 09:02:20;;;;;;;;;;;;;;;;;;;;;
2021/01/31 09:04:52;;;;;;;48.87;17.67;;;;;;;;;;4277666;33;20290;-78
2021/01/31 09:07:30;;;;;;;44.33;17.70;;;;;;;;;;4309091;33;20202;-78
2021/01/31 09:10:11;;;;;;;;;;;;;;;;;;;;;
2021/01/31 09:12:36;;;;;;;40.03;15.67;;;;;;;;;;4412166;32;20149;-78
2021/01/31 09:15:21;;;;;;;38.03;15.40;;;;;;;;;;4408240;32;20177;-80
2021/01/31 09:17:46;;;;;;;42.67;16.20;;;;;;;;;;4394741;32;20180;-78
2021/01/31 09:20:25;;;;;;;41.50;15.87;;;;;;;;;;4392917;32;20178;-78
2021/01/31 09:22:52;;;;;;;39.93;15.50;;;;;;;;;;4392690;32;20158;-77
2021/01/31 09:25:26;;;;;;;40.13;15.80;;;;;;;;;;4406020;32;20138;-78
2021/01/31 09:28:08;;;;;;;40.17;15.97;;;;;;;;;;4404984;32;20161;-78
2021/01/31 09:30:55;;;;;;;42.50;16.40;;;;;;;;;;4396451;32;20221;-77
2021/01/31 09:33:38;;;;;;;37.47;14.40;;;;;;;;;;4392367;32;20150;-77
2021/01/31 09:36:24;;;;;;;36.70;15.13;;;;;;;;;;4366967;32;20661;-77
2021/01/31 09:38:53;;;;;;;40.97;16.37;;;;;;;;;;4374997;32;20169;-77
2021/01/31 09:41:20;;;;;;;39.87;15.40;;;;;;;;;;4376297;32;20162;-77
2021/01/31 09:43:52;;;;;;;36.30;16.17;;;;;;;;;;4376973;32;20182;-77
2021/01/31 09:46:23;;;;;;;37.87;15.23;;;;;;;;;;4377402;32;20154;-77
2021/01/31 09:48:49;;;;;;;36.40;14.93;;;;;;;;;;4377199;32;20537;-77
2021/01/31 09:51:16;;;;;;;35.10;14.77;;;;;;;;;;4390987;32;20146;-78
2021/01/31 09:53:49;;;;;;;33.63;14.00;;;;;;;;;;4376728;32;20163;-78
2021/01/31 09:56:43;;;;;;;33.90;14.90;;;;;;;;;;4391116;32;20138;-78
2021/01/31 09:59:31;;;;;;;37.50;15.20;;;;;;;;;;4377351;32;20229;-79
2021/01/31 10:02:25;;;;;;;35.50;15.53;;;;;;;;;;4390845;32;20154;-79
2021/01/31 10:04:57;;;;;;;34.00;15.70;;;;;;;;;;4390527;32;20125;-79
2021/01/31 10:07:43;;;;;;;35.77;14.43;;;;;;;;;;4361944;32;20158;-79
2021/01/31 10:10:30;;;;;;;35.17;14.43;;;;;;;;;;4374611;32;20170;-79
2021/01/31 10:13:14;;;;;;;31.63;13.67;;;;;;;;;;4374638;32;20224;-78
2021/01/31 10:15:49;;;;;;;34.87;14.63;;;;;;;;;;4361970;32;20193;-78
2021/01/31 10:18:24;;;;;;;31.90;13.83;;;;;;;;;;4362304;32;20154;-78
2021/01/31 10:20:50;;;;;;;33.83;14.97;;;;;;;;;;4375859;32;20134;-77
2021/01/31 10:23:30;;;;;;;29.83;13.53;;;;;;;;;;4375107;32;20158;-79
2021/01/31 10:26:03;;;;;;;31.60;13.60;;;;;;;;;;4361954;32;20208;-78
2021/01/31 10:28:36;;;;;;;29.40;13.80;;;;;;;;;;4375824;32;20168;-77
2021/01/31 10:31:05;;;;;;;32.00;13.73;;;;;;;;;;4376756;32;20188;-77
2021/01/31 10:33:48;;;;;;;31.23;13.80;;;;;;;;;;4364582;32;20622;-77
2021/01/31 10:36:26;;;;;;;30.23;13.03;;;;;;;;;;4389891;32;20209;-79
2021/01/31 10:39:13;;;;;;;30.67;13.13;;;;;;;;;;4391854;32;20149;-77
2021/01/31 10:41:40;;;;;;;29.10;13.07;;;;;;;;;;4404889;32;20181;-78
2021/01/31 10:44:11;;;;;;;27.80;12.87;;;;;;;;;;4391171;32;20177;-77
2021/01/31 10:46:37;;;;;;;29.23;13.77;;;;;;;;;;4417866;32;20126;-78
2021/01/31 10:49:03;;;;;;;28.40;12.87;;;;;;;;;;4406079;32;20192;-75
2021/01/31 10:51:47;;;;;;;27.10;13.03;;;;;;;;;;4420098;32;20130;-78
2021/01/31 10:54:13;;;;;;;29.23;12.63;;;;;;;;;;4406496;32;20211;-78
2021/01/31 10:56:39;;;;;;;25.33;12.50;;;;;;;;;;4404747;32;20158;-78
2021/01/31 10:59:09;;;;;;;26.60;12.90;;;;;;;;;;4394745;32;20157;-78
2021/01/31 11:01:35;;;;;;;28.53;13.30;;;;;;;;;;4378389;32;20161;-76
2021/01/31 11:04:00;;;;;;;30.50;14.13;;;;;;;;;;4404673;32;20608;-74
2021/01/31 11:06:27;;;;;;;28.70;13.37;;;;;;;;;;4390750;32;20173;-72
2021/01/31 11:08:52;;;;;;;35.90;12.17;;;;;;;;;;4405096;32;20469;-72
2021/01/31 11:11:18;;;;;;;33.10;12.80;;;;;;;;;;4404913;32;20175;-75
2021/01/31 11:13:44;;;;;;;30.87;13.67;;;;;;;;;;4404826;32;20481;-73
2021/01/31 11:16:09;;;;;;;24.90;11.63;;;;;;;;;;4390790;32;20226;-73
2021/01/31 11:18:34;;;;;;;25.87;12.00;;;;;;;;;;4391241;32;20164;-74
2021/01/31 11:21:02;;;;;;;26.67;11.27;;;;;;;;;;4390049;32;20524;-73
2021/01/31 11:23:27;;;;;;;27.97;13.00;;;;;;;;;;4388191;32;20707;-74
2021/01/31 11:25:53;;;;;;;21.90;11.53;;;;;;;;;;4389780;32;20226;-74
2021/01/31 11:28:18;;;;;;;22.33;11.00;;;;;;;;;;4407750;32;20551;-74
2021/01/31 11:30:44;;;;;;;23.30;10.47;;;;;;;;;;4419995;32;20453;-74
2021/01/31 11:33:09;;;;;;;20.20;10.30;;;;;;;;;;4406500;32;20192;-73
2021/01/31 11:35:34;;;;;;;22.07;10.33;;;;;;;;;;4415308;32;20231;-73
2021/01/31 11:38:00;;;;;;;20.37;10.27;;;;;;;;;;4390492;32;20181;-73
2021/01/31 11:40:27;;;;;;;18.77;10.63;;;;;;;;;;4404123;32;20130;-72
2021/01/31 11:42:53;;;;;;;18.97;10.77;;;;;;;;;;4390104;32;20547;-73
2021/01/31 11:45:19;;;;;;;19.30;10.93;;;;;;;;;;4404469;32;20548;-73
2021/01/31 11:47:45;;;;;;;18.40;11.00;;;;;;;;;;4405014;32;20138;-73
2021/01/31 11:50:11;;;;;;;18.90;10.87;;;;;;;;;;4391060;32;20701;-73
2021/01/31 11:52:36;;;;;;;21.90;11.47;;;;;;;;;;4404145;32;20218;-72
2021/01/31 11:55:02;;;;;;;19.03;11.50;;;;;;;;;;4390371;32;20162;-73
2021/01/31 11:57:31;;;;;;;18.37;11.12;;;;;;;;;;4404468;32;20173;-73
2021/01/31 11:59:59;;;;;;;18.50;10.32;;;;;;;;;;4390495;32;20236;-74
2021/01/31 12:02:30;;;;;;;18.48;10.30;;;;;;;;;;4404179;32;20127;-74
2021/01/31 12:04:56;;;;;;;18.33;9.80;;;;;;;;;;4407446;32;20571;-74
2021/01/31 12:07:21;;;;;;;19.62;10.40;;;;;;;;;;4407427;32;20157;-73
2021/01/31 12:09:46;;;;;;;19.52;11.50;;;;;;;;;;4393692;32;20161;-74
2021/01/31 12:12:14;;;;;;;18.05;11.18;;;;;;;;;;4393482;32;20158;-73
2021/01/31 12:14:49;;;;;;;17.40;10.30;;;;;;;;;;4407413;32;20135;-74
2021/01/31 12:17:14;;;;;;;17.75;10.05;;;;;;;;;;4401140;32;20224;-73
2021/01/31 12:19:39;;;;;;;19.97;10.73;;;;;;;;;;4409827;32;20581;-73
2021/01/31 12:22:05;;;;;;;17.47;10.43;;;;;;;;;;4422467;32;20138;-74
2021/01/31 12:24:30;;;;;;;16.97;10.57;;;;;;;;;;4421659;32;20563;-74
2021/01/31 12:26:55;;;;;;;16.10;10.33;;;;;;;;;;4419882;32;20207;-73
2021/01/31 12:29:21;;;;;;;16.67;9.73;;;;;;;;;;4406415;32;20157;-74
2021/01/31 12:31:56;;;;;;;16.70;9.82;;;;;;;;;;4406889;32;20133;-74
2021/01/31 12:34:21;;;;;;;18.98;10.38;;;;;;;;;;4407089;32;20126;-71
2021/01/31 12:36:49;;;;;;;16.05;9.88;;;;;;;;;;4391245;32;20494;-74
2021/01/31 12:39:16;;;;;;;18.45;10.05;;;;;;;;;;4407103;32;20565;-75
2021/01/31 12:41:41;;;;;;;16.45;10.07;;;;;;;;;;4406871;32;20802;-75
2021/01/31 12:44:06;;;;;;;21.95;14.40;;;;;;;;;;4392746;32;20203;-76
2021/01/31 12:46:32;;;;;;;17.52;10.45;;;;;;;;;;4406606;32;20130;-72
2021/01/31 12:48:57;;;;;;;15.43;9.52;;;;;;;;;;4392194;32;20256;-75
2021/01/31 12:51:25;;;;;;;16.23;10.05;;;;;;;;;;4407302;32;20613;-75
2021/01/31 12:53:53;;;;;;;20.70;10.35;;;;;;;;;;4392367;32;20147;-75
2021/01/31 12:56:21;;;;;;;18.33;10.85;;;;;;;;;;4406727;32;20130;-74
2021/01/31 12:58:46;;;;;;;15.98;9.45;;;;;;;;;;4392159;32;20158;-74
2021/01/31 13:01:12;;;;;;;15.23;9.70;;;;;;;;;;4413016;32;20164;-74
2021/01/31 13:03:37;;;;;;;17.00;9.18;;;;;;;;;;4400128;32;20165;-74
2021/01/31 13:06:02;;;;;;;15.07;9.45;;;;;;;;;;4412817;32;20593;-75
2021/01/31 13:08:28;;;;;;;15.93;9.73;;;;;;;;;;4419015;32;20160;-72
2021/01/31 13:10:53;;;;;;;18.30;10.52;;;;;;;;;;4421929;32;20883;-74
2021/01/31 13:13:43;;;;;;;15.60;9.00;;;;;;;;;;4421743;32;20229;-74
2021/01/31 13:16:09;;;;;;;14.27;9.13;;;;;;;;;;4420547;32;20141;-74
2021/01/31 13:18:58;;;;;;;13.15;9.05;;;;;;;;;;4406170;32;20156;-75
2021/01/31 13:21:32;;;;;;;13.65;9.05;;;;;;;;;;4405759;32;20216;-74
2021/01/31 13:24:23;;;;;;;14.15;8.45;;;;;;;;;;4406271;32;20481;-74
2021/01/31 13:27:18;;;;;;;17.42;9.63;;;;;;;;;;4405938;32;20154;-74
2021/01/31 13:30:02;;;;;;;;;;;;;;;;;;;;;
2021/01/31 13:32:28;;;;;;;13.10;9.23;;;;;;;;;;4405106;32;20508;-75
2021/01/31 13:34:53;;;;;;;14.93;8.88;;;;;;;;;;4405263;32;20158;-73
2021/01/31 13:37:18;;;;;;;14.05;8.40;;;;;;;;;;4420869;32;20196;-74
2021/01/31 13:39:47;;;;;;;16.77;9.03;;;;;;;;;;4420847;32;20176;-75
2021/01/31 13:42:12;;;;;;;17.85;9.55;;;;;;;;;;4398578;32;20339;-74
2021/01/31 13:44:40;;;;;;;14.40;9.30;;;;;;;;;;4414999;32;20161;-74
2021/01/31 13:47:05;;;;;;;18.02;9.10;;;;;;;;;;4405630;32;20142;-74
2021/01/31 13:49:52;;;;;;;14.18;9.02;;;;;;;;;;4404994;32;20232;-73
2021/01/31 13:52:16;;;;;;;12.80;8.35;;;;;;;;;;4389621;32;20197;-75
2021/01/31 13:54:41;;;;;;;12.35;8.55;;;;;;;;;;4390644;32;20142;-75
2021/01/31 13:57:25;;;;;;;15.70;9.20;;;;;;;;;;4381408;32;20306;-72
2021/01/31 14:02:36;;;;;;;13.95;8.52;;;;;;;;;;4405004;32;20173;-74
2021/01/31 14:05:04;;;;;;;12.70;8.27;;;;;;;;;;4391386;32;20165;-74
2021/01/31 14:07:43;;;;;;;17.00;9.18;;;;;;;;;;4403282;32;20570;-74
2021/01/31 14:10:13;;;;;;;13.57;8.45;;;;;;;;;;4399914;32;20650;-74
2021/01/31 14:12:51;;;;;;;14.85;8.80;;;;;;;;;;4420031;32;20184;-73
2021/01/31 14:15:24;;;;;;;13.30;8.43;;;;;;;;;;4406021;32;20206;-74
2021/01/31 14:18:23;;;;;;;13.55;8.48;;;;;;;;;;4405997;32;20126;-75
2021/01/31 14:21:09;;;;;;;11.25;7.20;;;;;;;;;;4405447;32;20134;-73
2021/01/31 14:23:49;;;;;;;19.30;8.32;;;;;;;;;;4405048;32;20162;-75
2021/01/31 14:26:15;;;;;;;14.25;7.68;;;;;;;;;;4405384;32;20561;-73
2021/01/31 14:28:40;;;;;;;12.13;7.07;;;;;;;;;;4411979;32;20224;-73
2021/01/31 14:31:21;;;;;;;9.88;6.30;;;;;;;;;;4404815;32;20158;-73
2021/01/31 14:33:55;;;;;;;12.15;7.30;;;;;;;;;;4412474;32;20149;-74
2021/01/31 14:36:40;;;;;;;13.27;7.45;;;;;;;;;;4404159;32;20153;-74
2021/01/31 14:39:05;;;;;;;12.27;7.10;;;;;;;;;;4418158;32;20184;-74
2021/01/31 14:41:33;;;;;;;12.23;7.20;;;;;;;;;;4389402;32;20501;-74
2021/01/31 14:44:09;;;;;;;15.10;8.07;;;;;;;;;;4389964;32;20181;-74
2021/01/31 14:46:40;;;;;;;14.17;8.07;;;;;;;;;;4401658;32;20160;-73
2021/01/31 14:49:05;;;;;;;13.33;7.93;;;;;;;;;;4390061;32;20169;-72
2021/01/31 14:51:31;;;;;;;24.17;8.73;;;;;;;;;;4403159;32;20154;-73
2021/01/31 14:53:56;;;;;;;15.50;7.97;;;;;;;;;;4404172;32;20188;-72
2021/01/31 14:56:21;;;;;;;12.47;7.93;;;;;;;;;;4386681;32;20161;-74
2021/01/31 14:59:34;;;;;;;12.57;7.37;;;;;;;;;;4390052;32;20161;-73
2021/01/31 15:01:59;;;;;;;12.70;6.77;;;;;;;;;;4378191;32;20175;-78
2021/01/31 15:04:24;;;;;;;12.63;7.47;;;;;;;;;;4403937;32;20142;-76
2021/01/31 15:06:52;;;;;;;13.40;7.20;;;;;;;;;;4406424;32;20142;-76
2021/01/31 15:09:18;;;;;;;13.43;7.70;;;;;;;;;;4387307;32;20157;-76
2021/01/31 15:11:45;;;;;;;13.23;7.17;;;;;;;;;;4404561;32;20208;-76
2021/01/31 15:14:10;;;;;;;15.07;7.53;;;;;;;;;;4402177;32;20147;-76
2021/01/31 15:16:36;;;;;;;14.83;7.67;;;;;;;;;;4381986;32;20187;-76
2021/01/31 15:19:30;;;;;;;14.40;8.10;;;;;;;;;;4404433;32;20141;-75
2021/01/31 15:21:56;;;;;;;14.23;8.00;;;;;;;;;;4399301;32;20150;-73
2021/01/31 15:24:31;;;;;;;16.30;7.87;;;;;;;;;;4404257;32;20574;-75
2021/01/31 15:26:57;;;;;;;15.20;8.20;;;;;;;;;;4402243;32;20156;-75
2021/01/31 15:29:22;;;;;;;15.23;8.50;;;;;;;;;;4402265;32;20146;-75
2021/01/31 15:31:47;;;;;;;14.50;7.97;;;;;;;;;;4402995;32;20465;-75